HBFPL LSZH-LSGC
Flight info
| Callsign | HBFPL |
|---|---|
| Flight time | 0h 26m |
| Altitude | 8000 |
| Route | VFR |
| Aircraft | PC12/L-SDFGRWY/S |
Departure
| Time | 2026-05-07 12:57 |
|---|---|
| Airport | Zürich Airport (LSZH) |
Arrival
| Time | 2026-05-07 13:23 |
|---|---|
| Airport | Les Eplatures Airport (LSGC) |
| Time | Latitude | Longitude | Altitude | Speed | Heading |
|---|---|---|---|---|---|
| 2026-05-07 12:44 | 47.45431 | 8.57268 | 1416 ft | 0 kts | 4° |
| 2026-05-07 12:52 | 47.45432 | 8.57268 | 1416 ft | 2 kts | 0° |
| 2026-05-07 12:52 | 47.45456 | 8.57215 | 1416 ft | 11 kts | 301° |
| 2026-05-07 12:52 | 47.45506 | 8.57162 | 1417 ft | 12 kts | 296° |
| 2026-05-07 12:52 | 47.45511 | 8.57069 | 1417 ft | 6 kts | 292° |
| 2026-05-07 12:53 | 47.45550 | 8.57024 | 1417 ft | 6 kts | 333° |
| 2026-05-07 12:53 | 47.45580 | 8.57016 | 1419 ft | 0 kts | 3° |
| 2026-05-07 12:53 | 47.45581 | 8.57016 | 1419 ft | 2 kts | 3° |
| 2026-05-07 12:54 | 47.45632 | 8.57021 | 1421 ft | 11 kts | 3° |
| 2026-05-07 12:54 | 47.45666 | 8.56968 | 1421 ft | 3 kts | 276° |
| 2026-05-07 12:54 | 47.45666 | 8.56967 | 1421 ft | 0 kts | 274° |
| 2026-05-07 12:56 | 47.45684 | 8.56712 | 1415 ft | 59 kts | 276° |
| 2026-05-07 12:56 | 47.45745 | 8.55814 | 1452 ft | 109 kts | 277° |
| 2026-05-07 12:56 | 47.45854 | 8.54544 | 1690 ft | 141 kts | 279° |
| 2026-05-07 12:57 | 47.45719 | 8.53116 | 2318 ft | 143 kts | 231° |
| 2026-05-07 12:57 | 47.44784 | 8.52453 | 2635 ft | 159 kts | 198° |
| 2026-05-07 12:57 | 47.43678 | 8.51865 | 2775 ft | 177 kts | 212° |
| 2026-05-07 12:57 | 47.42802 | 8.50662 | 3069 ft | 179 kts | 232° |
| 2026-05-07 12:58 | 47.42052 | 8.49198 | 3267 ft | 176 kts | 228° |
| 2026-05-07 12:58 | 47.41026 | 8.48291 | 3423 ft | 175 kts | 206° |
| 2026-05-07 12:58 | 47.39974 | 8.47364 | 3598 ft | 178 kts | 227° |
| 2026-05-07 12:58 | 47.39258 | 8.45901 | 3697 ft | 172 kts | 241° |
| 2026-05-07 12:59 | 47.38690 | 8.44417 | 3885 ft | 165 kts | 244° |
| 2026-05-07 12:59 | 47.38146 | 8.42862 | 4131 ft | 172 kts | 244° |
| 2026-05-07 12:59 | 47.37639 | 8.41271 | 4436 ft | 175 kts | 248° |
| 2026-05-07 12:59 | 47.37162 | 8.39625 | 4726 ft | 170 kts | 245° |
| 2026-05-07 13:00 | 47.36652 | 8.38207 | 5440 ft | 151 kts | 243° |
| 2026-05-07 13:00 | 47.36140 | 8.36809 | 5926 ft | 162 kts | 243° |
| 2026-05-07 13:00 | 47.35568 | 8.35236 | 6042 ft | 187 kts | 243° |
| 2026-05-07 13:00 | 47.34934 | 8.33471 | 6037 ft | 200 kts | 243° |
| 2026-05-07 13:01 | 47.34277 | 8.31630 | 6037 ft | 205 kts | 244° |
| 2026-05-07 13:01 | 47.33610 | 8.29767 | 6037 ft | 206 kts | 244° |
| 2026-05-07 13:01 | 47.32992 | 8.27873 | 6026 ft | 205 kts | 256° |
| 2026-05-07 13:01 | 47.32897 | 8.25723 | 6034 ft | 218 kts | 273° |
| 2026-05-07 13:02 | 47.33194 | 8.23479 | 6026 ft | 228 kts | 285° |
| 2026-05-07 13:02 | 47.33490 | 8.21956 | 6035 ft | 231 kts | 285° |
| 2026-05-07 13:02 | 47.34115 | 8.18928 | 6029 ft | 234 kts | 286° |
| 2026-05-07 13:02 | 47.34594 | 8.16640 | 6035 ft | 234 kts | 286° |
| 2026-05-07 13:03 | 47.35077 | 8.14345 | 6036 ft | 234 kts | 286° |
| 2026-05-07 13:03 | 47.35402 | 8.12799 | 6036 ft | 234 kts | 286° |
| 2026-05-07 13:03 | 47.36040 | 8.09767 | 6037 ft | 235 kts | 286° |
| 2026-05-07 13:03 | 47.36522 | 8.07468 | 6028 ft | 236 kts | 287° |
| 2026-05-07 13:04 | 47.36791 | 8.05911 | 6024 ft | 235 kts | 276° |
| 2026-05-07 13:04 | 47.36664 | 8.03489 | 6023 ft | 235 kts | 260° |
| 2026-05-07 13:04 | 47.36339 | 8.01133 | 6025 ft | 235 kts | 259° |
| 2026-05-07 13:04 | 47.35990 | 7.98774 | 6027 ft | 236 kts | 258° |
| 2026-05-07 13:05 | 47.35647 | 7.96486 | 6018 ft | 224 kts | 258° |
| 2026-05-07 13:05 | 47.35298 | 7.94263 | 5838 ft | 216 kts | 253° |
| 2026-05-07 13:05 | 47.34526 | 7.92440 | 5618 ft | 209 kts | 231° |
| 2026-05-07 13:05 | 47.33579 | 7.90841 | 5408 ft | 210 kts | 230° |
| 2026-05-07 13:06 | 47.32606 | 7.89244 | 5185 ft | 207 kts | 230° |
| 2026-05-07 13:06 | 47.31640 | 7.87680 | 4992 ft | 209 kts | 229° |
| 2026-05-07 13:06 | 47.30673 | 7.86056 | 4795 ft | 213 kts | 230° |
| 2026-05-07 13:06 | 47.29706 | 7.84440 | 4593 ft | 208 kts | 230° |
| 2026-05-07 13:07 | 47.28746 | 7.82829 | 4392 ft | 210 kts | 230° |
| 2026-05-07 13:07 | 47.27781 | 7.81214 | 4186 ft | 209 kts | 230° |
| 2026-05-07 13:07 | 47.26825 | 7.79617 | 4033 ft | 206 kts | 231° |
| 2026-05-07 13:07 | 47.25871 | 7.78060 | 4027 ft | 207 kts | 229° |
| 2026-05-07 13:08 | 47.24922 | 7.76485 | 3845 ft | 196 kts | 230° |
| 2026-05-07 13:08 | 47.24019 | 7.74989 | 3251 ft | 189 kts | 230° |
| 2026-05-07 13:08 | 47.23166 | 7.73557 | 3028 ft | 190 kts | 230° |
| 2026-05-07 13:08 | 47.22263 | 7.72056 | 3034 ft | 201 kts | 230° |
| 2026-05-07 13:09 | 47.21324 | 7.70478 | 3348 ft | 206 kts | 231° |
| 2026-05-07 13:09 | 47.20391 | 7.68911 | 4098 ft | 202 kts | 230° |
| 2026-05-07 13:09 | 47.19459 | 7.67345 | 4770 ft | 205 kts | 230° |
| 2026-05-07 13:09 | 47.18542 | 7.65746 | 5440 ft | 204 kts | 236° |
| 2026-05-07 13:10 | 47.18047 | 7.63845 | 6104 ft | 201 kts | 265° |
| 2026-05-07 13:10 | 47.18057 | 7.61782 | 6705 ft | 204 kts | 271° |
| 2026-05-07 13:10 | 47.18119 | 7.59692 | 7329 ft | 205 kts | 271° |
| 2026-05-07 13:10 | 47.18193 | 7.57593 | 7980 ft | 207 kts | 271° |
| 2026-05-07 13:11 | 47.18273 | 7.55475 | 8660 ft | 208 kts | 271° |
| 2026-05-07 13:11 | 47.18367 | 7.53338 | 9355 ft | 209 kts | 272° |
| 2026-05-07 13:11 | 47.18470 | 7.51197 | 9986 ft | 211 kts | 272° |
| 2026-05-07 13:11 | 47.18581 | 7.49030 | 10555 ft | 213 kts | 272° |
| 2026-05-07 13:12 | 47.18703 | 7.46846 | 11110 ft | 216 kts | 275° |
| 2026-05-07 13:12 | 47.19035 | 7.44668 | 11626 ft | 220 kts | 282° |
| 2026-05-07 13:12 | 47.19411 | 7.42578 | 10988 ft | 214 kts | 281° |
| 2026-05-07 13:12 | 47.19744 | 7.40384 | 10185 ft | 219 kts | 279° |
| 2026-05-07 13:13 | 47.20045 | 7.38306 | 10020 ft | 192 kts | 279° |
| 2026-05-07 13:13 | 47.20311 | 7.36480 | 10022 ft | 190 kts | 279° |
| 2026-05-07 13:13 | 47.20601 | 7.34474 | 9844 ft | 212 kts | 280° |
| 2026-05-07 13:13 | 47.20912 | 7.32395 | 9469 ft | 199 kts | 280° |
| 2026-05-07 13:14 | 47.21202 | 7.30433 | 9107 ft | 196 kts | 280° |
| 2026-05-07 13:14 | 47.21452 | 7.28478 | 8697 ft | 195 kts | 278° |
| 2026-05-07 13:14 | 47.21678 | 7.26527 | 8256 ft | 192 kts | 278° |
| 2026-05-07 13:14 | 47.21899 | 7.24606 | 7824 ft | 190 kts | 278° |
| 2026-05-07 13:15 | 47.22117 | 7.22693 | 7394 ft | 189 kts | 278° |
| 2026-05-07 13:15 | 47.22334 | 7.20797 | 7066 ft | 186 kts | 279° |
| 2026-05-07 13:15 | 47.22548 | 7.18921 | 7001 ft | 189 kts | 278° |
| 2026-05-07 13:15 | 47.22767 | 7.16972 | 6706 ft | 189 kts | 279° |
| 2026-05-07 13:16 | 47.22981 | 7.15073 | 6412 ft | 189 kts | 279° |
| 2026-05-07 13:16 | 47.23156 | 7.13192 | 6107 ft | 176 kts | 274° |
| 2026-05-07 13:16 | 47.23168 | 7.11457 | 5766 ft | 162 kts | 268° |
| 2026-05-07 13:16 | 47.22986 | 7.09752 | 5124 ft | 171 kts | 256° |
| 2026-05-07 13:17 | 47.22514 | 7.08249 | 5019 ft | 149 kts | 239° |
| 2026-05-07 13:17 | 47.21892 | 7.06930 | 5026 ft | 163 kts | 237° |
| 2026-05-07 13:17 | 47.21245 | 7.05598 | 5023 ft | 158 kts | 238° |
| 2026-05-07 13:17 | 47.20611 | 7.04299 | 5024 ft | 156 kts | 237° |
| 2026-05-07 13:18 | 47.19977 | 7.02995 | 5022 ft | 156 kts | 237° |
| 2026-05-07 13:18 | 47.19350 | 7.01705 | 5026 ft | 155 kts | 237° |
| 2026-05-07 13:18 | 47.18710 | 7.00407 | 5029 ft | 157 kts | 236° |
| 2026-05-07 13:18 | 47.18072 | 6.99097 | 5022 ft | 156 kts | 237° |
| 2026-05-07 13:19 | 47.17447 | 6.97810 | 5020 ft | 154 kts | 236° |
| 2026-05-07 13:19 | 47.16817 | 6.96518 | 5025 ft | 160 kts | 237° |
| 2026-05-07 13:19 | 47.16168 | 6.95179 | 5024 ft | 159 kts | 236° |
| 2026-05-07 13:19 | 47.15515 | 6.93859 | 5033 ft | 160 kts | 236° |
| 2026-05-07 13:20 | 47.14868 | 6.92536 | 5038 ft | 155 kts | 237° |
| 2026-05-07 13:20 | 47.14242 | 6.91250 | 5022 ft | 160 kts | 237° |
| 2026-05-07 13:20 | 47.13583 | 6.89900 | 5041 ft | 165 kts | 238° |
| 2026-05-07 13:20 | 47.12915 | 6.88527 | 5023 ft | 152 kts | 238° |
| 2026-05-07 13:21 | 47.12340 | 6.87359 | 4858 ft | 134 kts | 237° |
| 2026-05-07 13:21 | 47.11794 | 6.86260 | 4660 ft | 137 kts | 238° |
| 2026-05-07 13:21 | 47.11238 | 6.85140 | 4425 ft | 125 kts | 235° |
| 2026-05-07 13:21 | 47.10742 | 6.84132 | 4441 ft | 124 kts | 239° |
| 2026-05-07 13:22 | 47.10267 | 6.83128 | 4292 ft | 113 kts | 239° |
| 2026-05-07 13:22 | 47.09819 | 6.82212 | 4048 ft | 108 kts | 240° |
| 2026-05-07 13:22 | 47.09400 | 6.81351 | 3705 ft | 100 kts | 236° |
| 2026-05-07 13:22 | 47.08989 | 6.80523 | 3544 ft | 98 kts | 236° |
| 2026-05-07 13:23 | 47.08607 | 6.79743 | 3360 ft | 88 kts | 238° |
| 2026-05-07 13:23 | 47.08313 | 6.79130 | 3351 ft | 51 kts | 233° |
| 2026-05-07 13:23 | 47.08186 | 6.78861 | 3370 ft | 29 kts | 236° |
| 2026-05-07 13:23 | 47.08115 | 6.78721 | 3376 ft | 11 kts | 233° |
| 2026-05-07 13:24 | 47.08083 | 6.78715 | 3375 ft | 2 kts | 214° |
| 2026-05-07 13:24 | 47.08117 | 6.78730 | 3376 ft | 8 kts | 44° |
| 2026-05-07 13:24 | 47.08146 | 6.78790 | 3375 ft | 12 kts | 54° |
| 2026-05-07 13:24 | 47.08186 | 6.78901 | 3369 ft | 9 kts | 111° |
| 2026-05-07 13:25 | 47.08187 | 6.78956 | 3365 ft | 15 kts | 51° |
| 2026-05-07 13:25 | 47.08250 | 6.79086 | 3362 ft | 4 kts | 52° |
| 2026-05-07 13:25 | 47.08336 | 6.79265 | 3358 ft | 43 kts | 56° |
| 2026-05-07 13:25 | 47.08462 | 6.79521 | 3361 ft | 1 kts | 66° |
| 2026-05-07 13:26 | 47.08454 | 6.79533 | 3384 ft | 7 kts | 235° |
| 2026-05-07 13:26 | 47.08464 | 6.79576 | 3358 ft | 0 kts | 302° |